sensor_id;sensor_type;location;lat;lon;timestamp;temperature;humidity
10642;DHT22;5369;49.586;8.646;2022-10-16T00:00:40;17.30;99.90
10642;DHT22;5369;49.586;8.646;2022-10-16T00:03:07;17.30;99.90
10642;DHT22;5369;49.586;8.646;2022-10-16T00:05:41;17.30;99.90
10642;DHT22;5369;49.586;8.646;2022-10-16T00:08:09;17.30;99.90
10642;DHT22;5369;49.586;8.646;2022-10-16T00:10:35;17.30;99.90
10642;DHT22;5369;49.586;8.646;2022-10-16T00:13:00;17.30;99.90
10642;DHT22;5369;49.586;8.646;2022-10-16T00:15:26;17.30;99.90
10642;DHT22;5369;49.586;8.646;2022-10-16T00:17:52;17.30;99.90
10642;DHT22;5369;49.586;8.646;2022-10-16T00:20:18;17.30;99.90
10642;DHT22;5369;49.586;8.646;2022-10-16T00:23:03;17.30;99.90
10642;DHT22;5369;49.586;8.646;2022-10-16T00:25:31;17.30;99.90
10642;DHT22;5369;49.586;8.646;2022-10-16T00:27:59;17.20;99.90
10642;DHT22;5369;49.586;8.646;2022-10-16T00:30:25;17.30;99.90
10642;DHT22;5369;49.586;8.646;2022-10-16T00:32:53;17.30;99.90
10642;DHT22;5369;49.586;8.646;2022-10-16T00:35:19;17.30;99.90
10642;DHT22;5369;49.586;8.646;2022-10-16T00:37:44;17.20;99.90
10642;DHT22;5369;49.586;8.646;2022-10-16T00:40:10;17.20;99.90
10642;DHT22;5369;49.586;8.646;2022-10-16T00:42:36;17.30;99.90
10642;DHT22;5369;49.586;8.646;2022-10-16T00:45:03;17.30;99.90
10642;DHT22;5369;49.586;8.646;2022-10-16T00:47:34;17.30;99.90
10642;DHT22;5369;49.586;8.646;2022-10-16T00:50:47;17.30;99.90
10642;DHT22;5369;49.586;8.646;2022-10-16T00:52:55;17.30;99.90
10642;DHT22;5369;49.586;8.646;2022-10-16T00:55:21;17.30;99.90
10642;DHT22;5369;49.586;8.646;2022-10-16T00:57:48;17.30;99.90
10642;DHT22;5369;49.586;8.646;2022-10-16T01:00:19;17.40;99.90
10642;DHT22;5369;49.586;8.646;2022-10-16T01:02:51;17.40;99.90
10642;DHT22;5369;49.586;8.646;2022-10-16T01:05:17;17.40;99.90
10642;DHT22;5369;49.586;8.646;2022-10-16T01:08:02;17.40;99.90
10642;DHT22;5369;49.586;8.646;2022-10-16T01:15:41;17.40;99.90
10642;DHT22;5369;49.586;8.646;2022-10-16T01:18:32;17.30;99.90
10642;DHT22;5369;49.586;8.646;2022-10-16T01:21:26;17.30;99.90
10642;DHT22;5369;49.586;8.646;2022-10-16T01:24:17;17.30;99.90
10642;DHT22;5369;49.586;8.646;2022-10-16T01:27:09;17.40;99.90
10642;DHT22;5369;49.586;8.646;2022-10-16T01:29:41;17.40;99.90
10642;DHT22;5369;49.586;8.646;2022-10-16T01:32:29;17.40;99.90
10642;DHT22;5369;49.586;8.646;2022-10-16T01:35:02;17.40;99.90
10642;DHT22;5369;49.586;8.646;2022-10-16T01:37:46;17.40;99.90
10642;DHT22;5369;49.586;8.646;2022-10-16T01:40:15;17.40;99.90
10642;DHT22;5369;49.586;8.646;2022-10-16T01:42:47;17.40;99.90
10642;DHT22;5369;49.586;8.646;2022-10-16T01:45:15;17.40;99.90
10642;DHT22;5369;49.586;8.646;2022-10-16T01:47:43;17.40;99.90
10642;DHT22;5369;49.586;8.646;2022-10-16T01:50:10;17.40;99.90
10642;DHT22;5369;49.586;8.646;2022-10-16T01:52:40;17.30;99.90
10642;DHT22;5369;49.586;8.646;2022-10-16T01:55:09;17.30;99.90
10642;DHT22;5369;49.586;8.646;2022-10-16T01:57:38;17.30;99.90
10642;DHT22;5369;49.586;8.646;2022-10-16T02:00:09;17.30;99.90
10642;DHT22;5369;49.586;8.646;2022-10-16T02:02:41;17.30;99.90
10642;DHT22;5369;49.586;8.646;2022-10-16T02:05:46;17.30;99.90
10642;DHT22;5369;49.586;8.646;2022-10-16T02:08:12;17.30;99.90
10642;DHT22;5369;49.586;8.646;2022-10-16T02:10:38;17.20;99.90
10642;DHT22;5369;49.586;8.646;2022-10-16T02:13:20;17.30;99.90
10642;DHT22;5369;49.586;8.646;2022-10-16T02:15:47;17.20;99.90
10642;DHT22;5369;49.586;8.646;2022-10-16T02:18:13;17.20;99.90
10642;DHT22;5369;49.586;8.646;2022-10-16T02:20:53;17.20;99.90
10642;DHT22;5369;49.586;8.646;2022-10-16T02:23:29;17.20;99.90
10642;DHT22;5369;49.586;8.646;2022-10-16T02:25:59;17.30;99.90
10642;DHT22;5369;49.586;8.646;2022-10-16T02:28:39;17.30;99.90
10642;DHT22;5369;49.586;8.646;2022-10-16T02:31:10;17.30;99.90
10642;DHT22;5369;49.586;8.646;2022-10-16T02:33:38;17.20;99.90
10642;DHT22;5369;49.586;8.646;2022-10-16T02:36:05;17.20;99.90
10642;DHT22;5369;49.586;8.646;2022-10-16T02:38:32;17.20;99.90
10642;DHT22;5369;49.586;8.646;2022-10-16T02:40:58;17.20;99.90
10642;DHT22;5369;49.586;8.646;2022-10-16T02:43:25;17.20;99.90
10642;DHT22;5369;49.586;8.646;2022-10-16T02:45:51;17.20;99.90
10642;DHT22;5369;49.586;8.646;2022-10-16T02:48:17;17.30;99.90
10642;DHT22;5369;49.586;8.646;2022-10-16T02:50:43;17.20;99.90
10642;DHT22;5369;49.586;8.646;2022-10-16T02:53:08;17.20;99.90
10642;DHT22;5369;49.586;8.646;2022-10-16T02:55:34;17.20;99.90
10642;DHT22;5369;49.586;8.646;2022-10-16T02:58:00;17.30;99.90
10642;DHT22;5369;49.586;8.646;2022-10-16T03:00:25;17.30;99.90
10642;DHT22;5369;49.586;8.646;2022-10-16T03:02:51;17.30;99.90
10642;DHT22;5369;49.586;8.646;2022-10-16T03:05:17;17.30;99.90
10642;DHT22;5369;49.586;8.646;2022-10-16T03:07:43;17.30;99.90
10642;DHT22;5369;49.586;8.646;2022-10-16T03:10:09;17.30;99.90
10642;DHT22;5369;49.586;8.646;2022-10-16T03:12:35;17.30;99.90
10642;DHT22;5369;49.586;8.646;2022-10-16T03:15:00;17.30;99.90
10642;DHT22;5369;49.586;8.646;2022-10-16T03:17:26;17.30;99.90
10642;DHT22;5369;49.586;8.646;2022-10-16T03:19:52;17.30;99.90
10642;DHT22;5369;49.586;8.646;2022-10-16T03:22:18;17.30;99.90
10642;DHT22;5369;49.586;8.646;2022-10-16T03:24:43;17.20;99.90
10642;DHT22;5369;49.586;8.646;2022-10-16T03:27:09;17.30;99.90
10642;DHT22;5369;49.586;8.646;2022-10-16T03:29:35;17.20;99.90
10642;DHT22;5369;49.586;8.646;2022-10-16T03:32:01;17.30;99.90
10642;DHT22;5369;49.586;8.646;2022-10-16T03:34:27;17.30;99.90
10642;DHT22;5369;49.586;8.646;2022-10-16T03:36:53;17.30;99.90
10642;DHT22;5369;49.586;8.646;2022-10-16T03:39:19;17.30;99.90
10642;DHT22;5369;49.586;8.646;2022-10-16T03:41:45;17.30;99.90
10642;DHT22;5369;49.586;8.646;2022-10-16T03:44:12;17.30;99.90
10642;DHT22;5369;49.586;8.646;2022-10-16T03:46:38;17.30;99.90
10642;DHT22;5369;49.586;8.646;2022-10-16T03:49:04;17.30;99.90
10642;DHT22;5369;49.586;8.646;2022-10-16T03:51:30;17.30;99.90
10642;DHT22;5369;49.586;8.646;2022-10-16T03:53:55;17.30;99.90
10642;DHT22;5369;49.586;8.646;2022-10-16T03:56:21;17.30;99.90
10642;DHT22;5369;49.586;8.646;2022-10-16T03:58:47;17.20;99.90
10642;DHT22;5369;49.586;8.646;2022-10-16T04:01:13;17.20;99.90
10642;DHT22;5369;49.586;8.646;2022-10-16T04:03:38;17.20;99.90
10642;DHT22;5369;49.586;8.646;2022-10-16T04:06:04;17.20;99.90
10642;DHT22;5369;49.586;8.646;2022-10-16T04:08:30;17.20;99.90
10642;DHT22;5369;49.586;8.646;2022-10-16T04:10:56;17.20;99.90
10642;DHT22;5369;49.586;8.646;2022-10-16T04:13:22;17.20;99.90
10642;DHT22;5369;49.586;8.646;2022-10-16T04:15:47;17.20;99.90
10642;DHT22;5369;49.586;8.646;2022-10-16T04:18:13;17.20;99.90
10642;DHT22;5369;49.586;8.646;2022-10-16T04:20:39;17.20;99.90
10642;DHT22;5369;49.586;8.646;2022-10-16T04:23:05;17.20;99.90
10642;DHT22;5369;49.586;8.646;2022-10-16T04:25:30;17.20;99.90
10642;DHT22;5369;49.586;8.646;2022-10-16T04:27:56;17.20;99.90
10642;DHT22;5369;49.586;8.646;2022-10-16T04:30:23;17.20;99.90
10642;DHT22;5369;49.586;8.646;2022-10-16T04:32:50;17.20;99.90
10642;DHT22;5369;49.586;8.646;2022-10-16T04:35:17;17.20;99.90
10642;DHT22;5369;49.586;8.646;2022-10-16T04:37:42;17.20;99.90
10642;DHT22;5369;49.586;8.646;2022-10-16T04:40:08;17.20;99.90
10642;DHT22;5369;49.586;8.646;2022-10-16T04:42:34;17.20;99.90
10642;DHT22;5369;49.586;8.646;2022-10-16T04:45:00;17.20;99.90
10642;DHT22;5369;49.586;8.646;2022-10-16T04:47:26;17.20;99.90
10642;DHT22;5369;49.586;8.646;2022-10-16T04:49:51;17.10;99.90
10642;DHT22;5369;49.586;8.646;2022-10-16T04:52:17;17.10;99.90
10642;DHT22;5369;49.586;8.646;2022-10-16T04:54:44;17.10;99.90
10642;DHT22;5369;49.586;8.646;2022-10-16T04:57:11;17.10;99.90
10642;DHT22;5369;49.586;8.646;2022-10-16T04:59:36;17.10;99.90
10642;DHT22;5369;49.586;8.646;2022-10-16T05:02:02;17.10;99.90
10642;DHT22;5369;49.586;8.646;2022-10-16T05:04:28;17.10;99.90
10642;DHT22;5369;49.586;8.646;2022-10-16T05:06:54;17.10;99.90
10642;DHT22;5369;49.586;8.646;2022-10-16T05:09:20;17.10;99.90
10642;DHT22;5369;49.586;8.646;2022-10-16T05:11:46;17.10;99.90
10642;DHT22;5369;49.586;8.646;2022-10-16T05:14:11;17.10;99.90
10642;DHT22;5369;49.586;8.646;2022-10-16T05:16:37;17.10;99.90
10642;DHT22;5369;49.586;8.646;2022-10-16T05:19:03;17.10;99.90
10642;DHT22;5369;49.586;8.646;2022-10-16T05:21:28;17.10;99.90
10642;DHT22;5369;49.586;8.646;2022-10-16T05:23:54;17.10;99.90
10642;DHT22;5369;49.586;8.646;2022-10-16T05:26:20;17.10;99.90
10642;DHT22;5369;49.586;8.646;2022-10-16T05:28:48;17.20;99.90
10642;DHT22;5369;49.586;8.646;2022-10-16T05:31:14;17.10;99.90
10642;DHT22;5369;49.586;8.646;2022-10-16T05:33:40;17.10;99.90
10642;DHT22;5369;49.586;8.646;2022-10-16T05:36:08;17.10;99.90
10642;DHT22;5369;49.586;8.646;2022-10-16T05:38:35;17.20;99.90
10642;DHT22;5369;49.586;8.646;2022-10-16T05:41:01;17.20;99.90
10642;DHT22;5369;49.586;8.646;2022-10-16T05:43:28;17.20;99.90
10642;DHT22;5369;49.586;8.646;2022-10-16T05:45:55;17.20;99.90
10642;DHT22;5369;49.586;8.646;2022-10-16T05:48:22;17.20;99.90
10642;DHT22;5369;49.586;8.646;2022-10-16T05:50:48;17.20;99.90
10642;DHT22;5369;49.586;8.646;2022-10-16T05:53:14;17.20;99.90
10642;DHT22;5369;49.586;8.646;2022-10-16T05:55:39;17.30;99.90
10642;DHT22;5369;49.586;8.646;2022-10-16T05:58:05;17.30;99.90
10642;DHT22;5369;49.586;8.646;2022-10-16T06:00:31;17.30;99.90
10642;DHT22;5369;49.586;8.646;2022-10-16T06:02:56;17.30;99.90
10642;DHT22;5369;49.586;8.646;2022-10-16T06:05:22;17.30;99.90
10642;DHT22;5369;49.586;8.646;2022-10-16T06:07:48;17.30;99.90
10642;DHT22;5369;49.586;8.646;2022-10-16T06:10:13;17.30;99.90
10642;DHT22;5369;49.586;8.646;2022-10-16T06:12:39;17.30;99.90
10642;DHT22;5369;49.586;8.646;2022-10-16T06:15:05;17.30;99.90
10642;DHT22;5369;49.586;8.646;2022-10-16T06:17:31;17.30;99.90
10642;DHT22;5369;49.586;8.646;2022-10-16T06:19:57;17.30;99.90
10642;DHT22;5369;49.586;8.646;2022-10-16T06:22:22;17.30;99.90
10642;DHT22;5369;49.586;8.646;2022-10-16T06:24:48;17.20;99.90
10642;DHT22;5369;49.586;8.646;2022-10-16T06:27:15;17.30;99.90
10642;DHT22;5369;49.586;8.646;2022-10-16T06:29:40;17.30;99.90
10642;DHT22;5369;49.586;8.646;2022-10-16T06:32:08;17.30;99.90
10642;DHT22;5369;49.586;8.646;2022-10-16T06:34:35;17.30;99.90
10642;DHT22;5369;49.586;8.646;2022-10-16T06:37:00;17.30;99.90
10642;DHT22;5369;49.586;8.646;2022-10-16T06:39:26;17.30;99.90
10642;DHT22;5369;49.586;8.646;2022-10-16T06:41:52;17.30;99.90
10642;DHT22;5369;49.586;8.646;2022-10-16T06:44:18;17.30;99.90
10642;DHT22;5369;49.586;8.646;2022-10-16T06:46:43;17.40;99.90
10642;DHT22;5369;49.586;8.646;2022-10-16T06:49:09;17.40;99.90
10642;DHT22;5369;49.586;8.646;2022-10-16T06:51:35;17.40;99.90
10642;DHT22;5369;49.586;8.646;2022-10-16T06:54:02;17.40;99.90
10642;DHT22;5369;49.586;8.646;2022-10-16T06:56:29;17.40;99.90
10642;DHT22;5369;49.586;8.646;2022-10-16T06:58:56;17.40;99.90
10642;DHT22;5369;49.586;8.646;2022-10-16T07:01:23;17.50;99.90
10642;DHT22;5369;49.586;8.646;2022-10-16T07:03:49;17.50;99.90
10642;DHT22;5369;49.586;8.646;2022-10-16T07:06:18;17.60;99.90
10642;DHT22;5369;49.586;8.646;2022-10-16T07:08:45;17.60;99.90
10642;DHT22;5369;49.586;8.646;2022-10-16T07:11:22;17.60;99.90
10642;DHT22;5369;49.586;8.646;2022-10-16T07:13:49;17.60;99.90
10642;DHT22;5369;49.586;8.646;2022-10-16T07:16:18;17.70;99.90
10642;DHT22;5369;49.586;8.646;2022-10-16T07:18:44;17.70;99.90
10642;DHT22;5369;49.586;8.646;2022-10-16T07:21:14;17.70;99.90
10642;DHT22;5369;49.586;8.646;2022-10-16T07:23:41;17.70;99.90
10642;DHT22;5369;49.586;8.646;2022-10-16T07:26:07;17.80;99.90
10642;DHT22;5369;49.586;8.646;2022-10-16T07:28:34;17.80;99.90
10642;DHT22;5369;49.586;8.646;2022-10-16T07:31:05;17.80;99.90
10642;DHT22;5369;49.586;8.646;2022-10-16T07:33:32;17.90;99.90
10642;DHT22;5369;49.586;8.646;2022-10-16T07:35:58;18.00;99.90
10642;DHT22;5369;49.586;8.646;2022-10-16T07:38:24;18.10;99.90
10642;DHT22;5369;49.586;8.646;2022-10-16T07:41:03;18.20;99.90
10642;DHT22;5369;49.586;8.646;2022-10-16T07:43:30;18.20;99.90
10642;DHT22;5369;49.586;8.646;2022-10-16T07:45:57;18.30;99.90
10642;DHT22;5369;49.586;8.646;2022-10-16T07:48:23;18.30;99.90
10642;DHT22;5369;49.586;8.646;2022-10-16T07:50:49;18.30;99.90
10642;DHT22;5369;49.586;8.646;2022-10-16T07:53:15;18.30;99.90
10642;DHT22;5369;49.586;8.646;2022-10-16T07:55:41;18.30;99.90
10642;DHT22;5369;49.586;8.646;2022-10-16T07:58:07;18.30;99.90
10642;DHT22;5369;49.586;8.646;2022-10-16T08:00:33;18.30;99.90
10642;DHT22;5369;49.586;8.646;2022-10-16T08:02:59;18.30;99.90
10642;DHT22;5369;49.586;8.646;2022-10-16T08:05:27;18.40;99.90
10642;DHT22;5369;49.586;8.646;2022-10-16T08:07:53;18.40;99.90
10642;DHT22;5369;49.586;8.646;2022-10-16T08:10:20;18.40;99.90
10642;DHT22;5369;49.586;8.646;2022-10-16T08:12:46;18.50;99.90
10642;DHT22;5369;49.586;8.646;2022-10-16T08:15:12;18.50;99.90
10642;DHT22;5369;49.586;8.646;2022-10-16T08:17:38;18.50;99.90
10642;DHT22;5369;49.586;8.646;2022-10-16T08:20:05;18.50;99.90
10642;DHT22;5369;49.586;8.646;2022-10-16T08:22:31;18.40;99.90
10642;DHT22;5369;49.586;8.646;2022-10-16T08:24:57;18.40;99.90
10642;DHT22;5369;49.586;8.646;2022-10-16T08:27:22;18.40;99.90
10642;DHT22;5369;49.586;8.646;2022-10-16T08:29:49;18.40;99.90
10642;DHT22;5369;49.586;8.646;2022-10-16T08:32:15;18.30;99.90
10642;DHT22;5369;49.586;8.646;2022-10-16T08:34:40;18.30;99.90
10642;DHT22;5369;49.586;8.646;2022-10-16T08:37:06;18.30;99.90
10642;DHT22;5369;49.586;8.646;2022-10-16T08:39:33;18.20;99.90
10642;DHT22;5369;49.586;8.646;2022-10-16T08:45:21;18.20;99.90
10642;DHT22;5369;49.586;8.646;2022-10-16T08:50:45;18.20;99.90
10642;DHT22;5369;49.586;8.646;2022-10-16T08:53:22;18.10;99.90
10642;DHT22;5369;49.586;8.646;2022-10-16T08:55:53;18.10;99.90
10642;DHT22;5369;49.586;8.646;2022-10-16T08:58:21;18.00;99.90
10642;DHT22;5369;49.586;8.646;2022-10-16T09:00:51;18.00;99.90
10642;DHT22;5369;49.586;8.646;2022-10-16T09:03:32;18.00;99.90
10642;DHT22;5369;49.586;8.646;2022-10-16T09:11:49;17.80;99.90
10642;DHT22;5369;49.586;8.646;2022-10-16T09:23:14;17.80;99.90
10642;DHT22;5369;49.586;8.646;2022-10-16T09:25:44;17.90;99.90
10642;DHT22;5369;49.586;8.646;2022-10-16T09:28:10;17.90;99.90
10642;DHT22;5369;49.586;8.646;2022-10-16T09:30:37;17.90;99.90
10642;DHT22;5369;49.586;8.646;2022-10-16T09:33:03;18.00;99.90
10642;DHT22;5369;49.586;8.646;2022-10-16T09:35:38;18.20;99.90
10642;DHT22;5369;49.586;8.646;2022-10-16T09:38:05;18.40;99.90
10642;DHT22;5369;49.586;8.646;2022-10-16T09:40:34;18.60;99.90
10642;DHT22;5369;49.586;8.646;2022-10-16T09:43:25;18.90;99.90
10642;DHT22;5369;49.586;8.646;2022-10-16T09:46:05;19.10;99.90
10642;DHT22;5369;49.586;8.646;2022-10-16T09:48:44;19.20;99.90
10642;DHT22;5369;49.586;8.646;2022-10-16T09:51:22;19.30;99.90
10642;DHT22;5369;49.586;8.646;2022-10-16T09:53:53;19.40;99.90
10642;DHT22;5369;49.586;8.646;2022-10-16T09:56:28;19.50;99.90
10642;DHT22;5369;49.586;8.646;2022-10-16T09:58:56;19.50;99.90
10642;DHT22;5369;49.586;8.646;2022-10-16T10:01:46;19.50;99.90
10642;DHT22;5369;49.586;8.646;2022-10-16T10:04:14;19.40;99.90
10642;DHT22;5369;49.586;8.646;2022-10-16T10:06:53;19.40;99.90
10642;DHT22;5369;49.586;8.646;2022-10-16T10:09:20;19.30;99.90
10642;DHT22;5369;49.586;8.646;2022-10-16T10:11:55;19.30;99.90
10642;DHT22;5369;49.586;8.646;2022-10-16T10:14:27;19.30;99.90
10642;DHT22;5369;49.586;8.646;2022-10-16T10:19:56;19.40;99.90
10642;DHT22;5369;49.586;8.646;2022-10-16T10:22:38;19.40;99.90
10642;DHT22;5369;49.586;8.646;2022-10-16T10:33:59;19.70;99.90
10642;DHT22;5369;49.586;8.646;2022-10-16T10:36:37;19.90;99.90
10642;DHT22;5369;49.586;8.646;2022-10-16T10:39:24;20.20;99.90
10642;DHT22;5369;49.586;8.646;2022-10-16T10:44:52;20.40;99.90
10642;DHT22;5369;49.586;8.646;2022-10-16T10:52:58;20.20;99.90
10642;DHT22;5369;49.586;8.646;2022-10-16T10:55:40;20.10;99.90
10642;DHT22;5369;49.586;8.646;2022-10-16T11:01:10;20.10;99.90
10642;DHT22;5369;49.586;8.646;2022-10-16T11:03:56;20.00;99.90
10642;DHT22;5369;49.586;8.646;2022-10-16T11:06:43;20.00;99.90
10642;DHT22;5369;49.586;8.646;2022-10-16T11:09:15;20.10;99.90
10642;DHT22;5369;49.586;8.646;2022-10-16T11:11:50;20.10;99.90
10642;DHT22;5369;49.586;8.646;2022-10-16T11:14:29;20.20;99.90
10642;DHT22;5369;49.586;8.646;2022-10-16T11:17:16;20.30;99.90
10642;DHT22;5369;49.586;8.646;2022-10-16T11:22:37;20.50;99.90
10642;DHT22;5369;49.586;8.646;2022-10-16T11:25:29;20.60;99.90
10642;DHT22;5369;49.586;8.646;2022-10-16T11:28:03;20.70;99.90
10642;DHT22;5369;49.586;8.646;2022-10-16T11:30:40;20.80;99.90
10642;DHT22;5369;49.586;8.646;2022-10-16T11:33:27;21.00;99.90
10642;DHT22;5369;49.586;8.646;2022-10-16T11:41:26;21.60;99.90
10642;DHT22;5369;49.586;8.646;2022-10-16T11:46:48;22.00;99.90
10642;DHT22;5369;49.586;8.646;2022-10-16T11:49:21;22.30;99.90
10642;DHT22;5369;49.586;8.646;2022-10-16T11:52:11;22.60;99.90
10642;DHT22;5369;49.586;8.646;2022-10-16T11:57:27;23.40;99.90
10642;DHT22;5369;49.586;8.646;2022-10-16T12:00:02;23.80;99.90
10642;DHT22;5369;49.586;8.646;2022-10-16T12:05:49;24.70;99.90
10642;DHT22;5369;49.586;8.646;2022-10-16T12:08:18;24.40;98.30
10642;DHT22;5369;49.586;8.646;2022-10-16T12:10:46;24.20;99.90
10642;DHT22;5369;49.586;8.646;2022-10-16T12:13:31;24.10;99.90
10642;DHT22;5369;49.586;8.646;2022-10-16T12:18:39;24.10;99.90
10642;DHT22;5369;49.586;8.646;2022-10-16T12:21:06;24.00;99.90
10642;DHT22;5369;49.586;8.646;2022-10-16T12:23:47;23.70;99.90
10642;DHT22;5369;49.586;8.646;2022-10-16T12:26:13;23.40;99.90
10642;DHT22;5369;49.586;8.646;2022-10-16T12:29:28;23.10;99.90
10642;DHT22;5369;49.586;8.646;2022-10-16T12:31:55;22.90;99.90
10642;DHT22;5369;49.586;8.646;2022-10-16T12:34:28;22.90;99.90
10642;DHT22;5369;49.586;8.646;2022-10-16T12:36:55;22.80;99.90
10642;DHT22;5369;49.586;8.646;2022-10-16T12:39:32;22.70;99.90
10642;DHT22;5369;49.586;8.646;2022-10-16T12:42:04;22.60;99.90
10642;DHT22;5369;49.586;8.646;2022-10-16T12:44:35;22.60;99.90
10642;DHT22;5369;49.586;8.646;2022-10-16T12:47:02;22.60;99.90
10642;DHT22;5369;49.586;8.646;2022-10-16T12:51:54;22.60;99.90
10642;DHT22;5369;49.586;8.646;2022-10-16T12:54:37;22.60;99.90
10642;DHT22;5369;49.586;8.646;2022-10-16T13:08:42;23.90;99.90
10642;DHT22;5369;49.586;8.646;2022-10-16T13:11:20;24.10;99.10
10642;DHT22;5369;49.586;8.646;2022-10-16T13:14:19;24.20;99.90
10642;DHT22;5369;49.586;8.646;2022-10-16T13:17:09;24.10;99.90
10642;DHT22;5369;49.586;8.646;2022-10-16T13:20:05;24.00;99.90
10642;DHT22;5369;49.586;8.646;2022-10-16T13:23:22;23.80;99.90
10642;DHT22;5369;49.586;8.646;2022-10-16T13:28:27;23.30;99.90
10642;DHT22;5369;49.586;8.646;2022-10-16T13:30:57;23.10;99.90
10642;DHT22;5369;49.586;8.646;2022-10-16T13:33:41;22.90;99.90
10642;DHT22;5369;49.586;8.646;2022-10-16T13:36:25;22.70;99.90
10642;DHT22;5369;49.586;8.646;2022-10-16T13:39:12;22.60;99.90
10642;DHT22;5369;49.586;8.646;2022-10-16T13:41:38;22.40;99.90
10642;DHT22;5369;49.586;8.646;2022-10-16T13:44:05;22.30;99.90
10642;DHT22;5369;49.586;8.646;2022-10-16T13:46:34;22.20;99.90
10642;DHT22;5369;49.586;8.646;2022-10-16T13:49:15;22.20;99.90
10642;DHT22;5369;49.586;8.646;2022-10-16T13:51:41;22.10;99.90
10642;DHT22;5369;49.586;8.646;2022-10-16T13:54:10;22.10;99.90
10642;DHT22;5369;49.586;8.646;2022-10-16T13:56:39;22.10;99.90
10642;DHT22;5369;49.586;8.646;2022-10-16T13:59:07;22.10;99.90
10642;DHT22;5369;49.586;8.646;2022-10-16T14:01:47;22.10;99.90
10642;DHT22;5369;49.586;8.646;2022-10-16T14:04:14;22.10;99.90
10642;DHT22;5369;49.586;8.646;2022-10-16T14:06:45;22.00;99.90
10642;DHT22;5369;49.586;8.646;2022-10-16T14:09:27;22.00;99.90
10642;DHT22;5369;49.586;8.646;2022-10-16T14:11:57;21.90;99.90
10642;DHT22;5369;49.586;8.646;2022-10-16T14:14:24;21.90;99.90
10642;DHT22;5369;49.586;8.646;2022-10-16T14:16:51;21.90;99.90
10642;DHT22;5369;49.586;8.646;2022-10-16T14:21:46;21.80;99.90
10642;DHT22;5369;49.586;8.646;2022-10-16T14:24:22;21.80;99.90
10642;DHT22;5369;49.586;8.646;2022-10-16T14:26:50;21.80;99.90
10642;DHT22;5369;49.586;8.646;2022-10-16T14:29:19;21.80;99.90
10642;DHT22;5369;49.586;8.646;2022-10-16T14:34:33;21.70;99.90
10642;DHT22;5369;49.586;8.646;2022-10-16T14:37:05;21.70;99.90
10642;DHT22;5369;49.586;8.646;2022-10-16T14:39:33;21.60;99.90
10642;DHT22;5369;49.586;8.646;2022-10-16T14:41:59;21.60;99.90
10642;DHT22;5369;49.586;8.646;2022-10-16T14:44:34;21.50;99.90
10642;DHT22;5369;49.586;8.646;2022-10-16T14:47:08;21.50;99.90
10642;DHT22;5369;49.586;8.646;2022-10-16T14:49:35;21.50;99.90
10642;DHT22;5369;49.586;8.646;2022-10-16T14:52:01;21.40;99.90
10642;DHT22;5369;49.586;8.646;2022-10-16T14:54:27;21.40;99.90
10642;DHT22;5369;49.586;8.646;2022-10-16T14:56:55;21.30;99.90
10642;DHT22;5369;49.586;8.646;2022-10-16T14:59:26;21.30;99.90
10642;DHT22;5369;49.586;8.646;2022-10-16T15:01:53;21.30;99.90
10642;DHT22;5369;49.586;8.646;2022-10-16T15:04:19;21.30;99.90
10642;DHT22;5369;49.586;8.646;2022-10-16T15:06:52;21.30;99.90
10642;DHT22;5369;49.586;8.646;2022-10-16T15:09:23;21.30;99.90
10642;DHT22;5369;49.586;8.646;2022-10-16T15:11:49;21.30;99.90
10642;DHT22;5369;49.586;8.646;2022-10-16T15:14:15;21.30;99.90
10642;DHT22;5369;49.586;8.646;2022-10-16T15:16:41;21.40;99.90
10642;DHT22;5369;49.586;8.646;2022-10-16T15:19:07;21.40;99.90
10642;DHT22;5369;49.586;8.646;2022-10-16T15:21:33;21.50;99.90
10642;DHT22;5369;49.586;8.646;2022-10-16T15:23:59;21.50;99.90
10642;DHT22;5369;49.586;8.646;2022-10-16T15:26:27;21.60;99.90
10642;DHT22;5369;49.586;8.646;2022-10-16T15:28:53;21.60;99.90
10642;DHT22;5369;49.586;8.646;2022-10-16T15:31:19;21.70;99.90
10642;DHT22;5369;49.586;8.646;2022-10-16T15:33:50;21.60;99.90
10642;DHT22;5369;49.586;8.646;2022-10-16T15:36:29;21.60;99.90
10642;DHT22;5369;49.586;8.646;2022-10-16T15:38:55;21.50;99.90
10642;DHT22;5369;49.586;8.646;2022-10-16T15:41:22;21.40;99.90
10642;DHT22;5369;49.586;8.646;2022-10-16T15:43:48;21.40;99.90
10642;DHT22;5369;49.586;8.646;2022-10-16T15:46:20;21.40;99.90
10642;DHT22;5369;49.586;8.646;2022-10-16T15:48:48;21.30;99.90
10642;DHT22;5369;49.586;8.646;2022-10-16T15:51:16;21.30;99.90
10642;DHT22;5369;49.586;8.646;2022-10-16T15:53:42;21.20;99.90
10642;DHT22;5369;49.586;8.646;2022-10-16T15:56:09;21.10;99.90
10642;DHT22;5369;49.586;8.646;2022-10-16T15:58:38;21.10;99.90
10642;DHT22;5369;49.586;8.646;2022-10-16T16:01:07;21.10;99.90
10642;DHT22;5369;49.586;8.646;2022-10-16T16:03:35;21.10;99.90
10642;DHT22;5369;49.586;8.646;2022-10-16T16:06:06;21.00;99.90
10642;DHT22;5369;49.586;8.646;2022-10-16T16:08:33;21.00;99.90
10642;DHT22;5369;49.586;8.646;2022-10-16T16:11:04;20.90;99.90
10642;DHT22;5369;49.586;8.646;2022-10-16T16:13:30;20.90;99.90
10642;DHT22;5369;49.586;8.646;2022-10-16T16:15:56;20.80;99.90
10642;DHT22;5369;49.586;8.646;2022-10-16T16:18:22;20.80;99.90
10642;DHT22;5369;49.586;8.646;2022-10-16T16:20:50;20.70;99.90
10642;DHT22;5369;49.586;8.646;2022-10-16T16:23:16;20.60;99.90
10642;DHT22;5369;49.586;8.646;2022-10-16T16:25:42;20.50;99.90
10642;DHT22;5369;49.586;8.646;2022-10-16T16:28:08;20.40;99.90
10642;DHT22;5369;49.586;8.646;2022-10-16T16:30:36;20.30;99.90
10642;DHT22;5369;49.586;8.646;2022-10-16T16:33:02;20.20;99.90
10642;DHT22;5369;49.586;8.646;2022-10-16T16:35:28;20.10;99.90
10642;DHT22;5369;49.586;8.646;2022-10-16T16:37:54;20.10;99.90
10642;DHT22;5369;49.586;8.646;2022-10-16T16:40:20;20.00;99.90
10642;DHT22;5369;49.586;8.646;2022-10-16T16:42:50;19.90;99.90
10642;DHT22;5369;49.586;8.646;2022-10-16T16:45:16;19.80;99.90
10642;DHT22;5369;49.586;8.646;2022-10-16T16:47:42;19.80;99.90
10642;DHT22;5369;49.586;8.646;2022-10-16T16:50:08;19.70;99.90
10642;DHT22;5369;49.586;8.646;2022-10-16T16:52:34;19.70;99.90
10642;DHT22;5369;49.586;8.646;2022-10-16T16:55:00;19.60;99.90
10642;DHT22;5369;49.586;8.646;2022-10-16T16:57:27;19.60;99.90
10642;DHT22;5369;49.586;8.646;2022-10-16T16:59:53;19.50;99.90
10642;DHT22;5369;49.586;8.646;2022-10-16T17:02:18;19.50;99.90
10642;DHT22;5369;49.586;8.646;2022-10-16T17:04:44;19.50;99.90
10642;DHT22;5369;49.586;8.646;2022-10-16T17:07:10;19.50;99.90
10642;DHT22;5369;49.586;8.646;2022-10-16T17:09:36;19.40;99.90
10642;DHT22;5369;49.586;8.646;2022-10-16T17:14:27;19.40;99.90
10642;DHT22;5369;49.586;8.646;2022-10-16T17:19:20;19.40;99.90
10642;DHT22;5369;49.586;8.646;2022-10-16T17:21:49;19.30;99.90
10642;DHT22;5369;49.586;8.646;2022-10-16T17:24:15;19.30;99.90
10642;DHT22;5369;49.586;8.646;2022-10-16T17:26:42;19.20;99.90
10642;DHT22;5369;49.586;8.646;2022-10-16T17:29:14;19.20;99.90
10642;DHT22;5369;49.586;8.646;2022-10-16T17:31:41;19.10;99.90
10642;DHT22;5369;49.586;8.646;2022-10-16T17:34:08;19.10;99.90
10642;DHT22;5369;49.586;8.646;2022-10-16T17:36:36;19.00;99.90